Time;durP1;ratioP1;P1;durP2;ratioP2;P2;SDS_P1;SDS_P2;PMS_P1;PMS_P2;Temp;Humidity;BMP_temperature;BMP_pressure;BME280_temperature;BME280_humidity;BME280_pressure;Samples;Min_cycle;Max_cycle;Signal;HPM_P1;HPM_P2
2022/10/14 00:02:14;;;;;;;0.93;0.80;;;20.30;87.50;;;;;;4999830;28;45385;-73
2022/10/14 00:04:41;;;;;;;1.25;0.77;;;20.30;87.50;;;;;;5002984;28;45495;-73
2022/10/14 00:07:08;;;;;;;1.33;0.90;;;20.30;87.50;;;;;;4994651;28;46611;-73
2022/10/14 00:09:36;;;;;;;1.52;0.68;;;20.30;87.50;;;;;;5004356;28;45434;-73
2022/10/14 00:12:03;;;;;;;0.93;0.60;;;20.30;87.50;;;;;;5001886;28;45260;-73
2022/10/14 00:14:30;;;;;;;3.90;0.82;;;20.30;87.50;;;;;;4993071;28;45498;-73
2022/10/14 00:16:57;;;;;;;2.33;0.80;;;20.30;87.50;;;;;;5002383;28;46593;-74
2022/10/14 00:19:23;;;;;;;0.77;0.70;;;20.30;87.50;;;;;;4989139;28;45280;-73
2022/10/14 00:21:50;;;;;;;0.70;0.68;;;20.30;87.50;;;;;;5001534;28;45497;-73
2022/10/14 00:24:17;;;;;;;1.60;0.70;;;20.30;87.50;;;;;;4993987;28;45337;-73
2022/10/14 00:26:46;;;;;;;0.85;0.70;;;20.30;87.50;;;;;;4993040;28;47489;-73
2022/10/14 00:29:17;;;;;;;1.13;0.90;;;20.30;87.50;;;;;;4998502;28;45354;-73
2022/10/14 00:31:44;;;;;;;0.82;0.82;;;20.30;87.50;;;;;;4995577;28;45600;-73
2022/10/14 00:34:11;;;;;;;1.00;0.60;;;20.30;87.50;;;;;;5001072;28;45535;-73
2022/10/14 00:36:39;;;;;;;1.02;0.55;;;20.30;87.50;;;;;;5001948;28;47438;-72
2022/10/14 00:39:06;;;;;;;1.48;0.90;;;20.30;87.50;;;;;;4990824;28;45217;-73
2022/10/14 00:41:34;;;;;;;0.68;0.68;;;20.30;87.50;;;;;;4996898;28;45487;-73
2022/10/14 00:44:05;;;;;;;1.20;0.75;;;20.30;87.50;;;;;;4997994;28;45575;-72
2022/10/14 00:46:34;;;;;;;2.78;0.80;;;20.30;87.40;;;;;;5001915;28;48071;-72
2022/10/14 00:49:05;;;;;;;2.05;0.95;;;20.30;87.50;;;;;;4998091;28;45271;-73
2022/10/14 00:51:32;;;;;;;0.90;0.70;;;20.30;87.50;;;;;;4990174;28;45291;-73
2022/10/14 00:53:58;;;;;;;0.90;0.63;;;20.30;87.40;;;;;;5002554;28;45330;-73
2022/10/14 00:56:29;;;;;;;1.05;0.70;;;20.30;87.40;;;;;;5005311;28;46306;-72
2022/10/14 00:58:57;;;;;;;1.13;0.90;;;20.30;87.40;;;;;;5001822;28;45348;-73
2022/10/14 01:01:27;;;;;;;1.48;0.70;;;20.30;87.50;;;;;;5000987;28;45453;-72
2022/10/14 01:03:54;;;;;;;1.23;0.60;;;20.30;87.40;;;;;;4997067;28;45474;-73
2022/10/14 01:06:31;;;;;;;1.05;0.70;;;20.30;87.50;;;;;;5002170;28;45464;-73
2022/10/14 01:09:03;;;;;;;0.63;0.60;;;20.30;87.50;;;;;;4997604;28;45444;-73
2022/10/14 01:11:36;;;;;;;0.73;0.70;;;20.30;87.50;;;;;;4990455;28;45264;-73
2022/10/14 01:14:13;;;;;;;0.88;0.70;;;20.30;87.30;;;;;;5002219;28;45398;-73
2022/10/14 01:16:49;;;;;;;2.08;1.00;;;20.30;87.40;;;;;;5001538;28;48047;-74
2022/10/14 01:19:37;;;;;;;1.52;0.80;;;20.30;87.40;;;;;;5002311;28;46259;-73
2022/10/14 01:22:11;;;;;;;1.33;0.80;;;20.30;87.30;;;;;;4997900;28;45374;-72
2022/10/14 01:24:44;;;;;;;0.88;0.65;;;20.30;87.40;;;;;;4997552;28;45224;-73
2022/10/14 01:27:31;;;;;;;1.20;0.77;;;20.30;87.40;;;;;;5002653;28;46312;-72
2022/10/14 01:30:16;;;;;;;0.80;0.75;;;20.30;87.40;;;;;;4981145;28;45223;-73
2022/10/14 01:33:05;;;;;;;2.10;0.60;;;20.30;87.40;;;;;;4993152;28;45236;-73
2022/10/14 01:35:52;;;;;;;0.68;0.68;;;20.30;87.40;;;;;;4991656;28;45404;-73
2022/10/14 01:38:23;;;;;;;0.98;0.80;;;20.30;87.40;;;;;;5007614;28;45374;-73
2022/10/14 01:40:56;;;;;;;2.15;0.70;;;20.30;87.40;;;;;;5003548;28;46035;-73
2022/10/14 01:43:25;;;;;;;0.75;0.60;;;20.30;87.30;;;;;;5002117;28;45197;-73
2022/10/14 01:45:55;;;;;;;0.60;0.60;;;20.30;87.30;;;;;;4999227;28;45659;-73
2022/10/14 01:48:28;;;;;;;1.30;0.90;;;20.30;87.30;;;;;;5004293;28;46601;-73
2022/10/14 01:50:59;;;;;;;0.52;0.50;;;20.30;87.40;;;;;;4994155;28;45346;-73
2022/10/14 01:53:32;;;;;;;2.42;0.70;;;20.30;87.30;;;;;;5001222;28;45315;-73
2022/10/14 01:56:02;;;;;;;1.13;0.70;;;20.30;87.30;;;;;;4989159;28;45668;-73
2022/10/14 01:58:31;;;;;;;0.50;0.50;;;20.30;87.40;;;;;;4998314;28;45431;-73
2022/10/14 02:01:02;;;;;;;1.05;0.70;;;20.30;87.30;;;;;;5002215;28;45329;-73
2022/10/14 02:03:39;;;;;;;0.70;0.70;;;20.30;87.30;;;;;;4993318;28;45319;-73
2022/10/14 02:06:11;;;;;;;0.50;0.50;;;20.30;87.40;;;;;;5004843;28;45458;-73
2022/10/14 02:08:51;;;;;;;0.77;0.68;;;20.30;87.40;;;;;;5008325;28;46270;-73
2022/10/14 02:11:20;;;;;;;1.25;0.68;;;20.30;87.50;;;;;;5003147;28;45570;-73
2022/10/14 02:14:05;;;;;;;0.85;0.50;;;20.30;87.40;;;;;;5006518;28;45343;-72
2022/10/14 02:16:38;;;;;;;1.10;1.00;;;20.30;87.30;;;;;;5004328;28;45469;-73
2022/10/14 02:19:16;;;;;;;0.95;0.73;;;20.30;87.40;;;;;;5005873;28;46467;-72
2022/10/14 02:21:47;;;;;;;0.57;0.55;;;20.30;87.30;;;;;;4998118;28;45378;-74
2022/10/14 02:24:19;;;;;;;0.90;0.75;;;20.30;87.30;;;;;;5001282;28;45302;-72
2022/10/14 02:26:48;;;;;;;0.95;0.80;;;20.30;87.20;;;;;;5002658;28;45418;-73
2022/10/14 02:29:15;;;;;;;0.73;0.68;;;20.30;87.20;;;;;;5000566;28;47322;-72
2022/10/14 02:31:45;;;;;;;0.77;0.60;;;20.30;87.20;;;;;;4992130;28;45510;-73
2022/10/14 02:34:16;;;;;;;0.98;0.80;;;20.30;87.20;;;;;;5002040;28;45346;-73
2022/10/14 02:36:45;;;;;;;1.48;0.73;;;20.30;87.20;;;;;;4996699;28;45585;-73
2022/10/14 02:39:15;;;;;;;0.60;0.60;;;20.30;87.20;;;;;;4993013;28;46296;-72
2022/10/14 02:41:41;;;;;;;4.15;0.80;;;20.30;87.20;;;;;;5004821;28;45454;-73
2022/10/14 02:44:08;;;;;;;1.52;0.80;;;20.30;87.10;;;;;;4990067;28;45454;-73
2022/10/14 02:46:35;;;;;;;0.60;0.60;;;20.30;87.20;;;;;;5005209;28;45216;-73
2022/10/14 02:49:05;;;;;;;0.63;0.63;;;20.30;87.10;;;;;;5002256;28;47977;-73
2022/10/14 02:51:32;;;;;;;0.80;0.70;;;20.30;87.10;;;;;;4988231;28;45340;-72
2022/10/14 02:54:00;;;;;;;1.00;0.80;;;20.30;87.10;;;;;;4994650;28;45506;-72
2022/10/14 02:56:27;;;;;;;0.88;0.70;;;20.30;87.00;;;;;;4988026;28;45238;-73
2022/10/14 02:58:53;;;;;;;0.90;0.70;;;20.30;87.10;;;;;;5001047;28;47674;-72
2022/10/14 03:01:20;;;;;;;0.90;0.75;;;20.30;87.20;;;;;;5003734;28;45462;-73
2022/10/14 03:03:47;;;;;;;0.80;0.80;;;20.30;87.10;;;;;;5000262;28;45429;-72
2022/10/14 03:06:15;;;;;;;0.90;0.73;;;20.30;87.10;;;;;;4994382;28;45339;-72
2022/10/14 03:08:42;;;;;;;0.60;0.60;;;20.30;87.10;;;;;;4997008;28;48490;-72
2022/10/14 03:11:09;;;;;;;0.73;0.73;;;20.30;87.10;;;;;;5005254;28;45441;-73
2022/10/14 03:13:35;;;;;;;1.08;0.80;;;20.30;87.10;;;;;;5001797;28;45497;-73
2022/10/14 03:16:02;;;;;;;0.70;0.70;;;20.30;87.10;;;;;;5003856;28;45553;-73
2022/10/14 03:18:29;;;;;;;0.70;0.70;;;20.30;87.10;;;;;;4995722;28;48646;-73
2022/10/14 03:20:56;;;;;;;1.08;0.70;;;20.30;87.10;;;;;;4996994;28;45298;-74
2022/10/14 03:23:24;;;;;;;1.40;0.85;;;20.30;87.00;;;;;;4998181;28;45386;-72
2022/10/14 03:25:50;;;;;;;1.08;0.80;;;20.30;87.10;;;;;;4989471;28;45507;-73
2022/10/14 03:28:17;;;;;;;1.35;0.90;;;20.30;87.10;;;;;;4988196;28;48324;-73
2022/10/14 03:30:44;;;;;;;0.93;0.82;;;20.30;87.00;;;;;;4998737;28;45658;-73
2022/10/14 03:33:11;;;;;;;1.00;0.80;;;20.30;87.00;;;;;;5005197;28;45274;-73
2022/10/14 03:35:37;;;;;;;1.10;0.80;;;20.30;87.00;;;;;;4996006;28;45565;-73
2022/10/14 03:38:05;;;;;;;0.63;0.60;;;20.30;87.00;;;;;;4996349;28;46583;-72
2022/10/14 03:40:33;;;;;;;0.68;0.68;;;20.30;87.00;;;;;;5003146;28;45485;-73
2022/10/14 03:43:00;;;;;;;0.85;0.70;;;20.30;87.00;;;;;;4994641;28;45526;-72
2022/10/14 03:45:28;;;;;;;0.93;0.80;;;20.30;87.00;;;;;;5004315;28;45456;-73
2022/10/14 03:47:55;;;;;;;0.90;0.80;;;20.30;87.00;;;;;;4985507;28;45507;-73
2022/10/14 03:50:21;;;;;;;0.98;0.70;;;20.30;87.00;;;;;;4995085;28;45606;-73
2022/10/14 03:52:48;;;;;;;0.68;0.68;;;20.30;86.90;;;;;;4984772;28;45389;-73
2022/10/14 03:55:15;;;;;;;1.00;0.90;;;20.30;86.90;;;;;;5001348;28;45603;-73
2022/10/14 03:57:43;;;;;;;0.90;0.90;;;20.30;86.80;;;;;;4998640;28;47228;-73
2022/10/14 04:00:11;;;;;;;4.35;1.00;;;20.30;86.90;;;;;;4994442;28;45352;-73
2022/10/14 04:02:39;;;;;;;0.77;0.77;;;20.30;86.80;;;;;;4992815;28;45345;-72
2022/10/14 04:05:06;;;;;;;0.75;0.75;;;20.30;86.80;;;;;;4993522;28;45209;-72
2022/10/14 04:07:33;;;;;;;1.10;0.93;;;20.30;86.80;;;;;;4998895;28;45897;-72
2022/10/14 04:10:00;;;;;;;0.70;0.60;;;20.30;87.00;;;;;;5000974;28;45346;-73
2022/10/14 04:12:27;;;;;;;0.80;0.80;;;20.20;87.10;;;;;;5001107;28;45370;-73
2022/10/14 04:14:55;;;;;;;1.02;0.90;;;20.20;87.10;;;;;;4992488;28;45278;-73
2022/10/14 04:17:22;;;;;;;0.90;0.80;;;20.20;87.20;;;;;;5002917;28;46601;-73
2022/10/14 04:19:49;;;;;;;1.42;1.25;;;20.30;87.10;;;;;;5000123;28;45363;-73
2022/10/14 04:22:16;;;;;;;1.48;0.90;;;20.30;86.70;;;;;;5004001;28;45594;-72
2022/10/14 04:24:43;;;;;;;1.15;0.90;;;20.30;86.50;;;;;;4990321;28;45316;-72
2022/10/14 04:27:10;;;;;;;0.80;0.80;;;20.30;86.50;;;;;;4994325;28;47528;-73
2022/10/14 04:29:37;;;;;;;1.23;1.10;;;20.20;86.40;;;;;;4992833;28;45387;-72
2022/10/14 04:32:05;;;;;;;0.93;0.75;;;20.20;86.30;;;;;;4998082;28;45309;-72
2022/10/14 04:34:32;;;;;;;1.23;0.80;;;20.20;86.30;;;;;;4999361;28;45584;-73
2022/10/14 04:36:58;;;;;;;1.30;0.75;;;20.20;86.30;;;;;;4991378;28;46886;-73
2022/10/14 04:39:25;;;;;;;1.05;0.70;;;20.20;86.30;;;;;;5001303;28;45267;-73
2022/10/14 04:41:52;;;;;;;1.50;0.95;;;20.20;86.20;;;;;;4992975;28;45308;-73
2022/10/14 04:44:19;;;;;;;1.45;0.85;;;20.20;86.10;;;;;;4996034;28;45214;-73
2022/10/14 04:46:45;;;;;;;6.43;0.88;;;20.20;86.00;;;;;;4992140;28;47782;-73
2022/10/14 04:49:15;;;;;;;1.10;0.90;;;20.20;86.10;;;;;;5000757;28;45503;-73
2022/10/14 04:51:42;;;;;;;0.88;0.70;;;20.20;86.10;;;;;;4998427;28;45322;-73
2022/10/14 04:54:09;;;;;;;1.17;0.90;;;20.20;86.00;;;;;;5002339;28;45543;-75
2022/10/14 04:56:36;;;;;;;0.93;0.85;;;20.20;86.10;;;;;;4998977;28;46574;-73
2022/10/14 04:59:02;;;;;;;1.00;0.90;;;20.20;87.10;;;;;;4999745;28;45414;-73
2022/10/14 05:01:29;;;;;;;1.52;0.80;;;20.20;86.00;;;;;;5006135;28;45496;-73
2022/10/14 05:03:56;;;;;;;3.05;0.70;;;20.20;86.10;;;;;;4999950;28;45607;-72
2022/10/14 05:06:25;;;;;;;1.08;0.98;;;20.20;86.20;;;;;;4995009;28;47041;-74
2022/10/14 05:08:51;;;;;;;1.45;0.82;;;20.20;86.10;;;;;;4994701;28;45500;-73
2022/10/14 05:11:18;;;;;;;1.02;0.90;;;20.20;86.30;;;;;;5002782;28;45390;-73
2022/10/14 05:13:45;;;;;;;1.08;0.80;;;20.20;86.30;;;;;;5004045;28;45414;-74
2022/10/14 05:16:12;;;;;;;1.83;0.90;;;20.20;86.30;;;;;;4992729;28;47604;-73
2022/10/14 05:18:38;;;;;;;1.02;0.80;;;20.20;86.30;;;;;;5003461;28;45307;-73
2022/10/14 05:21:06;;;;;;;0.70;0.70;;;20.20;86.40;;;;;;4999361;28;45381;-73
2022/10/14 05:23:34;;;;;;;1.08;0.73;;;20.20;86.40;;;;;;5003245;28;45295;-74
2022/10/14 05:26:01;;;;;;;0.77;0.77;;;20.20;86.50;;;;;;5002778;28;47487;-73
2022/10/14 05:28:27;;;;;;;1.02;0.70;;;20.30;86.60;;;;;;4983872;28;46091;-73
2022/10/14 05:30:54;;;;;;;1.48;0.90;;;20.30;86.60;;;;;;4994498;28;45374;-73
2022/10/14 05:33:21;;;;;;;0.77;0.70;;;20.30;86.50;;;;;;4993733;28;45604;-73
2022/10/14 05:35:49;;;;;;;1.30;0.70;;;20.30;86.50;;;;;;4992286;28;47035;-73
2022/10/14 05:38:16;;;;;;;1.55;0.70;;;20.30;86.60;;;;;;5002397;28;45419;-73
2022/10/14 05:40:51;;;;;;;0.60;0.60;;;20.30;86.50;;;;;;4989394;28;45528;-73
2022/10/14 05:43:18;;;;;;;0.90;0.77;;;20.30;86.60;;;;;;5003698;28;45319;-73
2022/10/14 05:45:45;;;;;;;0.73;0.70;;;20.30;86.40;;;;;;4999280;28;45322;-73
2022/10/14 05:48:12;;;;;;;0.70;0.70;;;20.30;86.50;;;;;;4988097;28;45516;-73
2022/10/14 05:50:38;;;;;;;1.25;0.95;;;20.30;86.50;;;;;;4991565;28;45433;-73
2022/10/14 05:53:05;;;;;;;1.05;0.90;;;20.30;86.60;;;;;;4983638;28;45602;-73
2022/10/14 05:55:32;;;;;;;1.27;0.90;;;20.20;86.60;;;;;;4987590;28;45630;-73
2022/10/14 05:58:02;;;;;;;0.80;0.80;;;20.20;86.60;;;;;;4995922;28;46987;-73
2022/10/14 06:00:29;;;;;;;1.52;0.90;;;20.20;86.60;;;;;;4989039;28;45311;-73
2022/10/14 06:02:57;;;;;;;1.05;0.70;;;20.20;86.60;;;;;;4997318;28;45399;-74
2022/10/14 06:05:24;;;;;;;0.90;0.77;;;20.20;86.50;;;;;;5002452;28;47613;-73
2022/10/14 06:07:51;;;;;;;1.10;0.88;;;20.30;87.60;;;;;;5001977;28;45573;-73
2022/10/14 06:10:18;;;;;;;1.85;0.90;;;20.30;86.50;;;;;;5000566;28;45576;-73
2022/10/14 06:12:45;;;;;;;0.85;0.80;;;20.30;86.50;;;;;;4996775;28;45679;-73
2022/10/14 06:15:13;;;;;;;1.17;0.80;;;20.30;86.50;;;;;;5002023;28;46614;-74
2022/10/14 06:17:40;;;;;;;1.35;0.80;;;20.30;86.60;;;;;;5001704;28;46134;-73
2022/10/14 06:20:07;;;;;;;3.00;0.90;;;20.30;86.60;;;;;;5004089;28;45264;-73
2022/10/14 06:22:34;;;;;;;0.90;0.77;;;20.30;86.60;;;;;;5001797;28;45306;-73
2022/10/14 06:25:01;;;;;;;2.92;0.98;;;20.30;86.50;;;;;;5003456;28;46308;-74
2022/10/14 06:27:28;;;;;;;1.48;0.68;;;20.20;86.50;;;;;;5004767;28;45636;-73
2022/10/14 06:29:54;;;;;;;1.50;0.70;;;20.30;86.50;;;;;;5005811;28;45426;-73
2022/10/14 06:32:22;;;;;;;1.20;0.90;;;20.30;86.60;;;;;;4995995;28;45585;-73
2022/10/14 06:34:49;;;;;;;0.75;0.75;;;20.30;86.60;;;;;;4995013;28;47949;-73
2022/10/14 06:37:16;;;;;;;1.17;0.82;;;20.30;86.60;;;;;;4994597;28;45348;-73
2022/10/14 06:39:43;;;;;;;2.95;0.90;;;20.30;86.60;;;;;;4986932;28;45354;-73
2022/10/14 06:42:10;;;;;;;1.10;0.80;;;20.30;86.60;;;;;;4992473;28;45489;-73
2022/10/14 06:44:38;;;;;;;1.08;0.80;;;20.30;86.60;;;;;;5004791;28;47643;-73
2022/10/14 06:47:06;;;;;;;1.50;0.63;;;20.30;86.70;;;;;;4998910;28;45614;-73
2022/10/14 06:49:34;;;;;;;1.27;0.80;;;20.30;86.50;;;;;;5005419;28;45433;-73
2022/10/14 06:52:01;;;;;;;0.95;0.85;;;20.30;86.50;;;;;;5000173;28;45220;-73
2022/10/14 06:54:28;;;;;;;0.80;0.80;;;20.20;86.40;;;;;;5005565;28;48756;-73
2022/10/14 06:56:54;;;;;;;0.88;0.68;;;20.30;86.40;;;;;;5005326;28;45458;-74
2022/10/14 06:59:21;;;;;;;0.70;0.63;;;20.30;86.40;;;;;;5001145;28;45553;-73
2022/10/14 07:01:48;;;;;;;1.63;0.88;;;20.30;86.40;;;;;;5005501;28;45475;-73
2022/10/14 07:04:15;;;;;;;1.42;0.80;;;20.30;86.30;;;;;;5004566;28;46614;-73
2022/10/14 07:06:43;;;;;;;0.95;0.82;;;20.30;86.30;;;;;;4994487;28;45248;-73
2022/10/14 07:09:10;;;;;;;1.00;0.90;;;20.20;86.30;;;;;;4987120;28;45556;-75
2022/10/14 07:11:36;;;;;;;0.70;0.60;;;20.30;86.30;;;;;;5005322;28;45335;-73
2022/10/14 07:14:03;;;;;;;1.15;0.70;;;20.30;86.30;;;;;;5003345;28;46691;-73
2022/10/14 07:16:30;;;;;;;0.70;0.63;;;20.30;86.30;;;;;;4987923;28;45304;-74
2022/10/14 07:18:57;;;;;;;2.50;0.80;;;20.30;86.30;;;;;;4985889;28;45344;-73
2022/10/14 07:21:24;;;;;;;1.00;0.52;;;20.30;86.40;;;;;;4985271;28;45594;-73
2022/10/14 07:23:52;;;;;;;2.08;0.70;;;20.30;86.30;;;;;;4995488;28;46312;-74
2022/10/14 07:26:19;;;;;;;0.68;0.60;;;20.30;86.30;;;;;;5000947;28;45371;-73
2022/10/14 07:28:45;;;;;;;0.73;0.70;;;20.20;86.20;;;;;;5005505;28;45244;-73
2022/10/14 07:31:13;;;;;;;1.33;0.70;;;20.30;86.30;;;;;;5003755;28;45402;-73
2022/10/14 07:33:40;;;;;;;0.60;0.60;;;20.30;86.20;;;;;;5003813;28;45355;-73
2022/10/14 07:36:09;;;;;;;1.48;0.50;;;20.30;86.20;;;;;;5004336;28;45512;-73
2022/10/14 07:38:37;;;;;;;0.98;0.70;;;20.30;86.10;;;;;;4998675;28;45356;-73
2022/10/14 07:41:08;;;;;;;1.00;0.60;;;20.30;86.10;;;;;;5005288;28;45439;-73
2022/10/14 07:43:35;;;;;;;0.82;0.68;;;20.30;86.10;;;;;;4998030;28;47416;-73
2022/10/14 07:46:04;;;;;;;0.85;0.68;;;20.30;86.10;;;;;;5003128;28;45579;-73
2022/10/14 07:48:33;;;;;;;0.70;0.68;;;20.30;86.10;;;;;;4994721;28;45428;-74
2022/10/14 07:51:00;;;;;;;0.55;0.50;;;20.30;86.20;;;;;;5005892;28;45688;-73
2022/10/14 07:53:27;;;;;;;0.50;0.50;;;20.30;86.10;;;;;;4996860;28;46469;-73
2022/10/14 07:55:57;;;;;;;0.60;0.60;;;20.30;86.30;;;;;;5004696;28;45211;-74
2022/10/14 07:58:28;;;;;;;1.25;0.60;;;20.30;86.30;;;;;;4989494;28;45354;-73
2022/10/14 08:00:55;;;;;;;0.82;0.50;;;20.30;86.30;;;;;;4997624;28;45629;-73
2022/10/14 08:03:24;;;;;;;1.13;0.70;;;20.30;86.30;;;;;;4993108;28;46542;-73
2022/10/14 08:05:50;;;;;;;0.52;0.50;;;20.30;86.30;;;;;;5004466;28;45369;-73
2022/10/14 08:08:18;;;;;;;0.73;0.60;;;20.30;86.40;;;;;;5004333;28;45211;-73
2022/10/14 08:10:45;;;;;;;1.15;0.50;;;20.30;86.40;;;;;;4997200;28;45434;-74
2022/10/14 08:13:12;;;;;;;1.90;0.50;;;20.30;86.30;;;;;;5002875;28;45461;-73
2022/10/14 08:15:42;;;;;;;0.40;0.40;;;20.20;86.10;;;;;;4989951;28;45302;-74
2022/10/14 08:18:09;;;;;;;0.57;0.40;;;20.30;86.20;;;;;;5003550;28;45327;-73
2022/10/14 08:20:36;;;;;;;0.50;0.50;;;20.30;86.30;;;;;;4996208;28;45534;-74
2022/10/14 08:23:03;;;;;;;0.45;0.45;;;20.30;86.20;;;;;;5001273;28;47000;-74
2022/10/14 08:25:30;;;;;;;0.77;0.60;;;20.30;86.20;;;;;;5004037;28;46032;-73
2022/10/14 08:27:57;;;;;;;1.10;0.50;;;20.30;86.10;;;;;;4995598;28;45452;-73
2022/10/14 08:30:24;;;;;;;0.57;0.52;;;20.30;86.00;;;;;;4998341;28;45469;-73
2022/10/14 08:32:52;;;;;;;0.57;0.57;;;20.30;86.10;;;;;;4991068;28;46434;-73
2022/10/14 08:35:19;;;;;;;1.60;0.55;;;20.30;86.00;;;;;;5004148;28;45425;-73
2022/10/14 08:37:55;;;;;;;0.88;0.60;;;20.30;86.00;;;;;;5003631;28;45368;-74
2022/10/14 08:40:22;;;;;;;0.65;0.45;;;20.30;86.00;;;;;;4998004;28;45658;-73
2022/10/14 08:42:54;;;;;;;1.00;0.50;;;20.40;86.10;;;;;;5000354;28;47027;-73
2022/10/14 08:45:27;;;;;;;0.50;0.50;;;20.40;86.00;;;;;;5003520;28;45418;-73
2022/10/14 08:47:56;;;;;;;0.70;0.50;;;20.40;86.00;;;;;;4987275;28;45301;-73
2022/10/14 08:50:30;;;;;;;0.40;0.40;;;20.40;85.90;;;;;;4991718;28;45441;-73
2022/10/14 08:53:02;;;;;;;0.82;0.60;;;20.40;85.90;;;;;;4999777;28;46319;-73
2022/10/14 08:55:35;;;;;;;0.70;0.50;;;20.40;85.90;;;;;;4995293;28;45403;-73
2022/10/14 08:58:11;;;;;;;0.50;0.50;;;20.40;85.90;;;;;;5003707;28;45343;-73
2022/10/14 09:00:42;;;;;;;1.35;0.65;;;20.40;86.00;;;;;;4993513;28;45374;-73
2022/10/14 09:03:17;;;;;;;0.90;0.55;;;20.30;85.90;;;;;;4992788;28;46768;-74
2022/10/14 09:05:44;;;;;;;1.63;0.43;;;20.40;86.10;;;;;;4988766;28;45358;-73
2022/10/14 09:08:15;;;;;;;0.73;0.47;;;20.40;86.10;;;;;;5002943;28;45436;-73
2022/10/14 09:10:44;;;;;;;1.35;0.40;;;20.40;86.10;;;;;;4993910;28;45224;-73
2022/10/14 09:13:17;;;;;;;0.60;0.57;;;20.40;86.10;;;;;;4983928;28;46551;-74
2022/10/14 09:15:46;;;;;;;0.50;0.50;;;20.40;86.10;;;;;;4981231;28;45376;-73
2022/10/14 09:18:23;;;;;;;0.50;0.50;;;20.40;86.20;;;;;;4994769;28;45542;-73
2022/10/14 09:20:50;;;;;;;0.50;0.50;;;20.40;87.10;;;;;;5002242;28;45617;-73
2022/10/14 09:23:19;;;;;;;0.73;0.40;;;20.40;86.20;;;;;;4996221;28;47906;-73
2022/10/14 09:25:55;;;;;;;1.02;0.40;;;20.40;86.10;;;;;;4995699;28;45635;-73
2022/10/14 09:28:24;;;;;;;0.70;0.57;;;20.40;86.00;;;;;;4994553;28;45551;-73
2022/10/14 09:30:51;;;;;;;0.65;0.63;;;20.40;86.00;;;;;;5000922;28;45550;-73
2022/10/14 09:33:19;;;;;;;0.77;0.60;;;20.40;86.00;;;;;;4992071;28;47273;-73
2022/10/14 09:35:48;;;;;;;1.45;0.52;;;20.40;86.00;;;;;;4995722;28;45431;-73
2022/10/14 09:38:16;;;;;;;0.73;0.52;;;20.40;86.00;;;;;;5001203;28;45323;-74
2022/10/14 09:40:44;;;;;;;0.60;0.60;;;20.40;86.00;;;;;;5002004;28;45319;-73
2022/10/14 09:43:17;;;;;;;0.70;0.60;;;20.40;86.00;;;;;;4997036;28;46631;-74
2022/10/14 09:45:51;;;;;;;0.50;0.50;;;20.40;86.10;;;;;;4994436;28;46470;-73
2022/10/14 09:48:28;;;;;;;0.50;0.50;;;20.40;86.10;;;;;;4995518;28;45315;-73
2022/10/14 09:50:57;;;;;;;0.60;0.52;;;20.40;86.10;;;;;;4999334;28;45382;-73
2022/10/14 09:53:28;;;;;;;0.50;0.50;;;20.40;86.10;;;;;;4998993;28;47398;-73
2022/10/14 09:55:57;;;;;;;0.60;0.60;;;20.40;86.10;;;;;;5004838;28;45291;-73
2022/10/14 09:58:30;;;;;;;0.63;0.57;;;20.40;86.10;;;;;;5006319;28;45584;-73
2022/10/14 10:00:59;;;;;;;0.52;0.45;;;20.40;86.10;;;;;;5005636;28;45633;-73
2022/10/14 10:03:31;;;;;;;0.80;0.50;;;20.40;86.30;;;;;;4988747;28;47017;-73
2022/10/14 10:06:04;;;;;;;0.82;0.60;;;20.40;86.30;;;;;;4986584;28;45470;-73
2022/10/14 10:08:31;;;;;;;0.80;0.60;;;20.40;86.30;;;;;;4991260;28;45236;-73
2022/10/14 10:11:00;;;;;;;0.77;0.55;;;20.40;86.30;;;;;;4996503;28;45463;-75
2022/10/14 10:13:38;;;;;;;0.52;0.50;;;20.40;86.30;;;;;;4993669;28;45494;-73
2022/10/14 10:16:07;;;;;;;0.73;0.60;;;20.40;86.40;;;;;;4992767;28;46089;-73
2022/10/14 10:18:35;;;;;;;0.70;0.52;;;20.40;86.30;;;;;;4991117;28;45378;-73
2022/10/14 10:21:06;;;;;;;0.85;0.60;;;20.40;86.40;;;;;;5005308;28;45602;-73
2022/10/14 10:23:35;;;;;;;0.57;0.57;;;20.40;86.40;;;;;;4996975;28;47279;-74
2022/10/14 10:26:24;;;;;;;1.45;0.60;;;20.40;86.40;;;;;;5006239;28;46154;-73
2022/10/14 10:28:52;;;;;;;1.30;0.68;;;20.40;86.40;;;;;;5003691;28;45283;-73
2022/10/14 10:31:47;;;;;;;0.50;0.50;;;20.40;86.40;;;;;;5001903;28;45542;-73
2022/10/14 10:34:50;;;;;;;0.50;0.50;;;20.40;86.40;;;;;;5000450;28;46501;-73
2022/10/14 10:37:24;;;;;;;0.70;0.70;;;20.40;86.40;;;;;;5004636;28;45368;-73
2022/10/14 10:40:10;;;;;;;2.30;0.63;;;20.40;86.40;;;;;;5001977;28;45232;-73
2022/10/14 10:42:47;;;;;;;0.65;0.57;;;20.40;86.40;;;;;;4990926;28;45616;-74
2022/10/14 10:45:20;;;;;;;1.08;0.77;;;20.40;86.50;;;;;;4997649;28;46352;-73
2022/10/14 10:47:56;;;;;;;0.93;0.70;;;20.40;86.50;;;;;;4994647;28;45441;-73
2022/10/14 10:50:32;;;;;;;1.00;0.70;;;20.40;86.50;;;;;;5003164;28;45402;-72
2022/10/14 10:53:28;;;;;;;0.70;0.43;;;20.40;86.70;;;;;;4999436;28;45537;-72
2022/10/14 10:56:03;;;;;;;0.55;0.55;;;20.40;86.70;;;;;;4989114;28;47631;-73
2022/10/14 10:58:43;;;;;;;1.40;0.60;;;20.40;86.70;;;;;;4993737;28;45377;-73
2022/10/14 11:01:20;;;;;;;0.73;0.50;;;20.40;86.80;;;;;;4989337;28;45320;-73
2022/10/14 11:03:57;;;;;;;0.50;0.50;;;20.40;86.80;;;;;;4999438;28;45312;-73
2022/10/14 11:12:16;;;;;;;1.50;0.70;;;20.40;87.00;;;;;;5004624;28;45446;-73
2022/10/14 11:15:04;;;;;;;0.63;0.63;;;20.40;87.00;;;;;;4987368;28;45600;-73
2022/10/14 11:17:38;;;;;;;0.47;0.47;;;20.40;87.00;;;;;;4981884;28;47139;-73
2022/10/14 11:20:18;;;;;;;0.95;0.60;;;20.40;87.20;;;;;;4983968;28;45344;-73
2022/10/14 11:23:00;;;;;;;0.70;0.68;;;20.40;87.00;;;;;;4979922;28;45339;-73
2022/10/14 11:25:45;;;;;;;0.60;0.60;;;20.40;87.20;;;;;;4970523;28;45391;-73
2022/10/14 11:28:18;;;;;;;1.10;0.70;;;20.40;87.10;;;;;;4978885;28;47408;-73
2022/10/14 11:30:51;;;;;;;0.60;0.60;;;20.40;87.10;;;;;;4984319;28;45355;-73
2022/10/14 11:33:36;;;;;;;1.48;0.77;;;20.40;87.10;;;;;;4985590;28;45648;-73
2022/10/14 11:36:16;;;;;;;1.00;0.60;;;20.40;87.10;;;;;;4983490;28;45312;-73
2022/10/14 11:39:00;;;;;;;0.90;0.50;;;20.40;87.10;;;;;;4984710;28;45382;-72
2022/10/14 11:41:40;;;;;;;1.65;0.80;;;20.40;87.10;;;;;;4976198;28;45429;-73
2022/10/14 11:44:14;;;;;;;0.57;0.50;;;20.40;87.20;;;;;;4981743;28;45386;-73
2022/10/14 11:46:46;;;;;;;0.85;0.70;;;20.40;87.20;;;;;;4978190;28;45378;-73
2022/10/14 11:49:21;;;;;;;0.88;0.57;;;20.40;87.20;;;;;;4974129;28;47436;-73
2022/10/14 11:51:52;;;;;;;0.88;0.68;;;20.40;87.30;;;;;;4979640;28;45338;-72
2022/10/14 11:54:27;;;;;;;0.60;0.55;;;20.40;87.20;;;;;;4984130;28;45468;-73
2022/10/14 11:57:00;;;;;;;1.13;0.70;;;20.40;87.30;;;;;;4984790;28;45609;-73
2022/10/14 12:00:01;;;;;;;0.90;0.70;;;20.40;87.40;;;;;;4969135;28;46318;-73
2022/10/14 12:02:35;;;;;;;0.60;0.60;;;20.40;87.60;;;;;;4944693;28;45499;-73
2022/10/14 12:05:09;;;;;;;0.80;0.70;;;20.40;87.70;;;;;;4973226;28;45229;-72
2022/10/14 12:07:42;;;;;;;1.05;0.85;;;20.30;87.50;;;;;;4984143;28;45427;-74
2022/10/14 12:10:17;;;;;;;1.00;0.70;;;20.40;87.60;;;;;;4970698;28;47437;-73
2022/10/14 12:12:45;;;;;;;0.75;0.60;;;20.40;87.50;;;;;;4984117;28;45286;-73
2022/10/14 12:15:18;;;;;;;0.68;0.68;;;20.40;87.50;;;;;;4976370;28;45204;-73
2022/10/14 12:17:49;;;;;;;0.75;0.65;;;20.40;87.70;;;;;;4981029;28;45387;-73
2022/10/14 12:20:23;;;;;;;1.08;0.63;;;20.40;87.50;;;;;;4978179;28;46994;-72
2022/10/14 12:22:51;;;;;;;0.68;0.68;;;20.30;87.70;;;;;;4984641;28;45433;-73
2022/10/14 12:25:22;;;;;;;1.20;0.77;;;20.40;87.80;;;;;;4971946;28;45510;-73
2022/10/14 12:27:51;;;;;;;1.50;0.90;;;20.40;87.80;;;;;;4984827;28;45296;-72
2022/10/14 12:30:37;;;;;;;0.73;0.65;;;20.40;88.00;;;;;;4980918;28;45478;-72
2022/10/14 12:33:07;;;;;;;1.85;0.70;;;20.40;88.00;;;;;;4979717;28;45508;-73
2022/10/14 12:35:58;;;;;;;1.75;0.93;;;20.40;87.80;;;;;;4982594;28;45351;-73
2022/10/14 12:38:26;;;;;;;0.80;0.65;;;20.40;88.00;;;;;;4980165;28;45474;-72
2022/10/14 12:40:53;;;;;;;0.70;0.70;;;20.40;88.20;;;;;;4983680;28;49158;-73
2022/10/14 12:43:28;;;;;;;1.10;0.90;;;20.40;88.30;;;;;;4982947;28;45559;-73
2022/10/14 12:46:14;;;;;;;1.08;0.80;;;20.40;88.20;;;;;;4979161;28;45284;-73
2022/10/14 12:48:50;;;;;;;1.63;0.80;;;20.40;88.40;;;;;;4973655;28;45364;-74
2022/10/14 12:51:20;;;;;;;1.25;0.88;;;20.40;88.50;;;;;;4973688;28;47763;-73
2022/10/14 12:54:05;;;;;;;0.80;0.70;;;20.40;88.40;;;;;;4982532;28;45406;-73
2022/10/14 12:56:36;;;;;;;1.27;0.90;;;20.40;88.40;;;;;;4977571;28;45431;-74
2022/10/14 12:59:07;;;;;;;1.58;0.90;;;20.40;88.60;;;;;;4983320;28;45407;-74
2022/10/14 13:01:35;;;;;;;1.63;0.95;;;20.40;88.60;;;;;;4979744;28;46074;-73
2022/10/14 13:04:05;;;;;;;1.10;0.90;;;20.30;88.40;;;;;;4981952;28;45370;-73
2022/10/14 13:06:38;;;;;;;1.75;0.88;;;20.30;88.30;;;;;;4978226;28;45413;-72
2022/10/14 13:09:34;;;;;;;0.70;0.70;;;20.30;88.50;;;;;;4979843;28;45410;-73
2022/10/14 13:12:43;;;;;;;0.82;0.80;;;20.30;89.40;;;;;;4945853;28;48600;-73